Flight Track Log - Related Links

Times and Time Zones

All times are in EDT time to prevent confusion due to time zone crossing. See the SWA1910 flight status page for this flight to view local times or setup timezone preferences in your user account.

Time Position Orientation Groundspeed Altitude Reporting Facility
EDT Latitude Longitude Course Direction KTS MPH feet Rate Location/Type
Thu 05:39:18 PM 42.9167 -78.7667 228° Southwest 156 180 3,400  Level Buffalo TRACON
Thu 05:40:32 PM 42.8397 -78.7597 176° South 259 298 7,100 3,358 Climbing Cleveland Center
Thu 05:41:32 PM 42.7642 -78.7222 160° South 264 304 10,900 3,200 Climbing Cleveland Center
Thu 05:42:32 PM 42.6814 -78.6400 144° Southeast 300 345 13,500 3,100 Climbing Cleveland Center
Thu 05:43:32 PM 42.5925 -78.5553 145° Southeast 351 404 17,100 3,300 Climbing Cleveland Center
Thu 05:44:32 PM 42.5011 -78.4653 144° Southeast 390 449 20,100 3,000 Climbing Cleveland Center
Thu 05:45:32 PM 42.4122 -78.3811 145° Southeast 424 488 23,100 2,450 Climbing Cleveland Center
Thu 05:46:32 PM 42.3122 -78.2864 145° Southeast 437 503 25,000 950 Climbing Cleveland Center
Thu 05:47:32 PM 42.2103 -78.1919 146° Southeast 442 509 25,000  Level Cleveland Center
Thu 05:48:32 PM 42.1081 -78.0922 144° Southeast 452 520 25,000  Level Cleveland Center
Thu 05:52:32 PM 41.6897 -77.7072 145° Southeast 465 535 25,000  Level New York Center
Thu 05:53:32 PM 41.5850 -77.6075 145° Southeast 465 535 25,000 -153 Level New York Center
Thu 05:54:30 PM 41.4822 -77.5111 145° Southeast 465 535 24,700 -712 Descending New York Center
Thu 05:55:30 PM 41.3653 -77.4028 145° Southeast 465 535 23,600 -992 Descending New York Center
Thu 05:56:31 PM 41.2558 -77.3092 147° Southeast 465 535 22,700 -1,488 Descending New York Center
Thu 05:57:31 PM 41.1547 -77.2167 145° Southeast 459 528 20,600 -2,033 Descending New York Center
Thu 05:58:32 PM 41.0556 -77.1247 145° Southeast 454 522 18,600 -1,785 Descending New York Center
Thu 05:59:32 PM 40.9600 -77.0389 146° Southeast 443 510 17,000 -1,373 Descending New York Center
Thu 06:00:30 PM 40.8686 -76.9564 146° Southeast 408 470 15,900 -1,017 Descending New York Center
Thu 06:01:30 PM 40.7850 -76.8775 144° Southeast 400 460 15,000 -450 Descending New York Center
Thu 06:02:30 PM 40.7025 -76.7797 138° Southeast 405 466 15,000  Level New York Center
Thu 06:03:31 PM 40.6142 -76.6736 138° Southeast 398 458 15,000  Level New York Center
Thu 06:04:31 PM 40.5361 -76.5658 134° Southeast 398 458 15,000  Level New York Center
Thu 06:05:30 PM 40.4642 -76.4561 131° Southeast 398 458 15,000  Level New York Center
Thu 06:06:30 PM 40.3725 -76.4594 182° South 350 403 15,000  Level New York Center
Thu 06:07:31 PM 40.2569 -76.4772 187° South 356 410 15,000 -496 Level New York Center
Thu 06:08:31 PM 40.1561 -76.4933 187° South 372 428 14,000 -1,013 Descending New York Center
Thu 06:10:05 PM 40.0000 -76.5167 187° South 358 412 12,400 -813 Descending Potomac TRACON
Thu 06:11:06 PM 39.9000 -76.5333 187° South 317 365 11,900 -545 Descending Potomac TRACON
Thu 06:12:06 PM 39.8167 -76.5500 189° South 312 359 11,300 -850 Descending Potomac TRACON
Thu 06:13:06 PM 39.7333 -76.5667 189° South 289 333 10,200 -1,050 Descending Potomac TRACON
Thu 06:14:06 PM 39.6667 -76.5833 191° South 271 312 9,200 -1,140 Descending Potomac TRACON
Thu 06:15:07 PM 39.5833 -76.5833 180° South 260 299 7,900 -1,339 Descending Potomac TRACON
Thu 06:16:07 PM 39.5333 -76.6333 218° Southwest 252 290 6,500 -1,450 Descending Potomac TRACON
Thu 06:17:07 PM 39.4833 -76.6833 218° Southwest 249 287 5,000 -1,250 Descending Potomac TRACON
Thu 06:18:07 PM 39.4333 -76.7500 226° Southwest 245 282 4,000 -550 Descending Potomac TRACON
Thu 06:19:07 PM 39.3667 -76.8000 210° Southwest 242 278 3,900  Descending Potomac TRACON
Thu 06:20:08 PM 39.3167 -76.8500 218° Southwest 228 262 4,000  Climbing Potomac TRACON
Thu 06:21:08 PM 39.2500 -76.8667 191° South 203 234 3,900 -600 Descending Potomac TRACON
Thu 06:22:08 PM 39.2167 -76.8833 201° Southwest 191 220 2,800 -950 Descending Potomac TRACON
Thu 06:23:08 PM 39.1833 -76.8333 131° Southeast 176 203 2,000 -694 Descending Potomac TRACON
Thu 06:24:09 PM 39.1833 -76.7667 90° East 168 193 1,400 -694 Descending Potomac TRACON
Thu 06:25:09 PM 39.1833 -76.7167 90° East 136 157 600 -800 Descending Potomac TRACON
Thu 06:27:00 PM 39.1667 -76.6667 270° West  Level FlightAware Approximate
Thu 06:34:00 PM 39.1754 -76.6683 270° West  Level Estimated

Login

Don't have an account? Register now (free) for customized features, flight alerts, and more!